sensor_id;sensor_type;location;lat;lon;timestamp;pressure;altitude;pressure_sealevel;temperature;humidity
43691;BME280;29293;52.190;21.226;2022-08-20T00:04:27;100081.48;;;21.95;77.86
43691;BME280;29293;52.190;21.226;2022-08-20T00:19:34;100092.50;;;21.74;79.39
43691;BME280;29293;52.190;21.226;2022-08-20T00:34:40;100116.08;;;21.43;81.99
43691;BME280;29293;52.190;21.226;2022-08-20T00:49:46;100135.77;;;21.06;84.87
43691;BME280;29293;52.190;21.226;2022-08-20T01:04:52;100130.14;;;20.77;86.65
43691;BME280;29293;52.190;21.226;2022-08-20T01:20:04;100100.59;;;20.40;88.64
43691;BME280;29293;52.190;21.226;2022-08-20T01:35:11;100068.36;;;20.05;91.28
43691;BME280;29293;52.190;21.226;2022-08-20T01:50:20;100042.20;;;19.80;93.00
43691;BME280;29293;52.190;21.226;2022-08-20T02:05:28;100034.38;;;19.80;94.01
43691;BME280;29293;52.190;21.226;2022-08-20T02:20:37;100013.65;;;19.84;94.15
43691;BME280;29293;52.190;21.226;2022-08-20T02:35:47;100013.48;;;19.84;94.40
43691;BME280;29293;52.190;21.226;2022-08-20T02:50:55;100007.02;;;19.89;94.72
43691;BME280;29293;52.190;21.226;2022-08-20T03:06:25;100037.11;;;19.90;94.67
43691;BME280;29293;52.190;21.226;2022-08-20T03:21:31;100037.63;;;19.80;95.54
43691;BME280;29293;52.190;21.226;2022-08-20T04:10:42;99952.05;;;19.83;97.25
43691;BME280;29293;52.190;21.226;2022-08-20T04:25:49;99964.05;;;20.07;97.22
43691;BME280;29293;52.190;21.226;2022-08-20T04:40:55;100030.52;;;20.30;96.96
43691;BME280;29293;52.190;21.226;2022-08-20T05:44:48;100018.56;;;21.77;92.53
43691;BME280;29293;52.190;21.226;2022-08-20T06:47:08;100043.96;;;21.87;93.12
43691;BME280;29293;52.190;21.226;2022-08-20T07:02:19;100048.27;;;21.91;93.01
43691;BME280;29293;52.190;21.226;2022-08-20T07:48:38;100036.75;;;22.81;91.98
43691;BME280;29293;52.190;21.226;2022-08-20T08:03:45;100045.92;;;23.38;90.31
43691;BME280;29293;52.190;21.226;2022-08-20T08:18:53;100063.87;;;23.97;88.48
43691;BME280;29293;52.190;21.226;2022-08-20T08:34:01;100052.66;;;24.48;87.64
43691;BME280;29293;52.190;21.226;2022-08-20T08:49:11;100022.10;;;25.27;85.44
43691;BME280;29293;52.190;21.226;2022-08-20T09:04:19;99999.25;;;26.01;81.98
43691;BME280;29293;52.190;21.226;2022-08-20T09:19:26;100005.02;;;26.29;80.81
43691;BME280;29293;52.190;21.226;2022-08-20T09:34:35;100011.51;;;26.61;77.34
43691;BME280;29293;52.190;21.226;2022-08-20T09:49:50;100006.63;;;26.48;76.59
43691;BME280;29293;52.190;21.226;2022-08-20T10:20:54;100002.86;;;28.03;71.28
43691;BME280;29293;52.190;21.226;2022-08-20T10:36:06;99991.67;;;28.51;68.83
43691;BME280;29293;52.190;21.226;2022-08-20T10:51:12;99969.77;;;29.08;67.00
43691;BME280;29293;52.190;21.226;2022-08-20T11:06:18;99974.83;;;29.43;64.19
43691;BME280;29293;52.190;21.226;2022-08-20T11:21:24;99972.52;;;29.66;63.76
43691;BME280;29293;52.190;21.226;2022-08-20T11:36:30;99966.26;;;30.11;61.35
43691;BME280;29293;52.190;21.226;2022-08-20T11:51:36;99973.52;;;30.05;60.28
43691;BME280;29293;52.190;21.226;2022-08-20T12:06:42;99971.91;;;30.30;59.57
43691;BME280;29293;52.190;21.226;2022-08-20T12:21:48;99956.73;;;30.47;58.01
43691;BME280;29293;52.190;21.226;2022-08-20T12:36:59;99950.45;;;30.58;57.07
43691;BME280;29293;52.190;21.226;2022-08-20T12:52:07;99945.88;;;30.38;56.59
43691;BME280;29293;52.190;21.226;2022-08-20T13:07:13;99936.54;;;30.41;55.84
43691;BME280;29293;52.190;21.226;2022-08-20T13:22:20;99917.64;;;30.29;55.86
43691;BME280;29293;52.190;21.226;2022-08-20T13:37:28;99905.85;;;30.15;55.38
43691;BME280;29293;52.190;21.226;2022-08-20T13:52:35;99903.88;;;30.30;54.42
43691;BME280;29293;52.190;21.226;2022-08-20T14:07:47;99905.73;;;30.29;53.26
43691;BME280;29293;52.190;21.226;2022-08-20T14:22:53;99909.42;;;30.07;52.55
43691;BME280;29293;52.190;21.226;2022-08-20T14:37:59;99925.59;;;29.42;52.25
43691;BME280;29293;52.190;21.226;2022-08-20T14:53:06;99934.34;;;28.96;53.88
43691;BME280;29293;52.190;21.226;2022-08-20T15:08:13;99940.78;;;28.78;54.68
43691;BME280;29293;52.190;21.226;2022-08-20T15:23:18;99939.98;;;28.42;55.04
43691;BME280;29293;52.190;21.226;2022-08-20T15:38:25;99946.73;;;27.88;56.46
43691;BME280;29293;52.190;21.226;2022-08-20T15:53:34;99952.44;;;27.42;57.65
43691;BME280;29293;52.190;21.226;2022-08-20T16:08:54;99947.29;;;27.13;58.66
43691;BME280;29293;52.190;21.226;2022-08-20T16:24:06;99939.88;;;26.92;59.52
43691;BME280;29293;52.190;21.226;2022-08-20T16:39:19;99937.14;;;26.66;60.06
43691;BME280;29293;52.190;21.226;2022-08-20T16:54:25;99941.47;;;26.35;60.96
43691;BME280;29293;52.190;21.226;2022-08-20T17:09:36;99944.35;;;26.03;61.97
43691;BME280;29293;52.190;21.226;2022-08-20T17:24:44;99941.70;;;25.65;63.26
43691;BME280;29293;52.190;21.226;2022-08-20T17:39:52;99944.58;;;25.17;64.47
43691;BME280;29293;52.190;21.226;2022-08-20T17:54:59;99965.05;;;24.77;65.52
43691;BME280;29293;52.190;21.226;2022-08-20T18:10:08;99973.43;;;24.40;66.48
43691;BME280;29293;52.190;21.226;2022-08-20T18:25:27;99970.35;;;23.98;67.44
43691;BME280;29293;52.190;21.226;2022-08-20T18:40:35;99973.02;;;23.61;68.43
43691;BME280;29293;52.190;21.226;2022-08-20T18:55:44;99974.96;;;23.32;69.23
43691;BME280;29293;52.190;21.226;2022-08-20T19:10:57;99985.08;;;23.07;69.97
43691;BME280;29293;52.190;21.226;2022-08-20T19:26:13;99986.30;;;22.76;70.91
43691;BME280;29293;52.190;21.226;2022-08-20T19:41:22;99995.72;;;22.53;71.72
43691;BME280;29293;52.190;21.226;2022-08-20T19:56:36;99984.52;;;22.19;72.72
43691;BME280;29293;52.190;21.226;2022-08-20T20:11:46;99974.09;;;21.89;73.83
43691;BME280;29293;52.190;21.226;2022-08-20T20:26:53;99962.02;;;21.73;74.42
43691;BME280;29293;52.190;21.226;2022-08-20T20:42:00;99953.64;;;21.55;75.42
43691;BME280;29293;52.190;21.226;2022-08-20T20:57:21;99953.59;;;21.38;76.34
43691;BME280;29293;52.190;21.226;2022-08-20T21:12:27;99959.71;;;21.25;77.26
43691;BME280;29293;52.190;21.226;2022-08-20T21:27:34;99955.50;;;20.99;79.07
43691;BME280;29293;52.190;21.226;2022-08-20T21:42:41;99956.27;;;20.74;80.36
43691;BME280;29293;52.190;21.226;2022-08-20T21:57:48;99951.58;;;20.49;82.82
43691;BME280;29293;52.190;21.226;2022-08-20T22:12:54;99949.01;;;20.31;84.86
43691;BME280;29293;52.190;21.226;2022-08-20T22:28:00;99966.11;;;20.45;85.11
43691;BME280;29293;52.190;21.226;2022-08-20T22:43:06;99975.63;;;20.60;85.24
43691;BME280;29293;52.190;21.226;2022-08-20T22:58:12;99983.21;;;20.61;85.29
43691;BME280;29293;52.190;21.226;2022-08-20T23:13:19;99988.98;;;20.52;86.09
43691;BME280;29293;52.190;21.226;2022-08-20T23:28:26;99996.73;;;20.40;86.84
43691;BME280;29293;52.190;21.226;2022-08-20T23:43:32;100012.34;;;20.31;87.38
43691;BME280;29293;52.190;21.226;2022-08-20T23:58:37;100013.56;;;20.12;88.11
